Jixi, China
Current Conditions -  °F | °C
As of 9:00 PM on Monday 20 Oct 2014 (Local Time) from UHWW Reporting Station
Broken Clouds Broken Clouds  
Wind Chill: 42°   Ceiling: 10000
Heat Index: 46°   Visibility: 6mi
Dew Point: 28°   Wind: 9mph
Humidity: 50%   Direction: 320°NW
Pressure: 30.15"   Gusts: 20mph
Location:  45.3°N, 130.97°E
Report Text: UHWW 201300Z 32004G09MPS 9999 BKN100 08/M02 Q1021 NOSIG RMKQFE764/1019 25CLRD70
Loading
Personal Weather Stations






























Interactive Weather Map
Tropical Storm Tracking
New forecast layout! Learn more

10-Day Weather Forecast

Advertisements
Track Severe Weather on mobile